This is the latest recevied weather packets stored in our database for station/object KG4YZY-1. If no packets are shown the sender has not sent any weather packets the latest 1 day(s).
| Time | Temp. | Humidity | Pressure | Rain* | Wind** | Luminosity | Snow |
|---|---|---|---|---|---|---|---|
| 1778068204 | 18.33° C | 90% | 1017.8 hPa | 0 mm | - | - | - |
| 1778067004 | 18.33° C | 90% | 1017.6 hPa | 0 mm | - | - | - |
| 1778066704 | 18.33° C | 90% | 1017.5 hPa | 0 mm | - | - | - |
| 1778066104 | 17.78° C | 89% | 1017.5 hPa | 0 mm | - | - | - |
| 1778064304 | 17.78° C | 89% | 1017.2 hPa | 0 mm | - | - | - |
| 1778064004 | 17.78° C | 89% | 1017.2 hPa | 0 mm | - | - | - |
| 1778062804 | 17.78° C | 89% | 1017 hPa | 0 mm | - | - | - |
| 1778061004 | 18.33° C | 88% | 1017.1 hPa | 0 mm | - | - | - |
| 1778060704 | 18.33° C | 88% | 1017.2 hPa | 0 mm | - | - | - |
| 1778060404 | 18.33° C | 88% | 1017.1 hPa | 0 mm | - | - | - |
| 1778059804 | 18.33° C | 88% | 1016.9 hPa | 0 mm | - | - | - |
| 1778059504 | 18.33° C | 87% | 1017 hPa | 0 mm | - | - | - |
| 1778058904 | 18.33° C | 87% | 1016.9 hPa | 0 mm | - | - | - |
| 1778058304 | 18.89° C | 87% | 1017.1 hPa | 0 mm | - | - | - |
| 1778057404 | 18.89° C | 87% | 1016.8 hPa | 0 mm | - | - | - |
| 1778056504 | 18.89° C | 87% | 1016.8 hPa | 0 mm | - | - | - |
| 1778054104 | 18.89° C | 86% | 1016.9 hPa | 0 mm | - | - | - |
| 1778053804 | 18.89° C | 86% | 1016.9 hPa | 0 mm | - | - | - |
| 1778053204 | 18.89° C | 87% | 1017 hPa | 0 mm | - | - | - |
| 1778052904 | 18.89° C | 87% | 1017 hPa | 0 mm | - | - | - |
| 1778052304 | 18.89° C | 86% | 1017 hPa | 0 mm | - | - | - |
| 1778049904 | 19.44° C | 86% | 1017.4 hPa | 0 mm | - | - | - |
| 1778049604 | 19.44° C | 86% | 1017.4 hPa | 0 mm | - | - | - |
| 1778047504 | 20° C | 86% | 1017.8 hPa | 0 mm | - | - | - |
| 1778044804 | 20.56° C | 86% | 1017.9 hPa | 0 mm | - | - | - |
* Rain latest hour (hover to see other rain measurements)
** Current wind speed in m/s (hover to see current wind gust speed)